Time;durP1;ratioP1;P1;durP2;ratioP2;P2;SDS_P1;SDS_P2;PMS_P1;PMS_P2;Temp;Humidity;BMP_temperature;BMP_pressure;BME280_temperature;BME280_humidity;BME280_pressure;Samples;Min_cycle;Max_cycle;Signal;HPM_P1;HPM_P2
2022/01/22 00:01:10;;;;;;;1.50;0.90;;;;;;;0.80;50.92;99432.84;5095702;28;20257;-89
2022/01/22 00:03:36;;;;;;;0.50;0.50;;;;;;;0.77;50.06;99438.88;5095824;28;20196;-93
2022/01/22 00:06:01;;;;;;;1.87;0.70;;;;;;;0.78;50.63;99443.19;5095055;28;20185;-89
2022/01/22 00:08:27;;;;;;;0.43;0.30;;;;;;;0.67;50.16;99451.88;5094578;28;20427;-88
2022/01/22 00:10:52;;;;;;;4.77;1.10;;;;;;;0.90;50.01;99450.81;5096050;28;20666;-88
2022/01/22 00:15:46;;;;;;;0.80;0.60;;;;;;;0.90;50.33;99447.34;5096077;28;20190;-92
2022/01/22 00:18:12;;;;;;;1.20;0.63;;;;;;;0.94;50.12;99426.69;5095673;28;20990;-89
2022/01/22 00:20:38;;;;;;;0.40;0.40;;;;;;;0.78;50.85;99424.25;5095372;28;20430;-89
2022/01/22 00:23:05;;;;;;;1.00;0.73;;;;;;;0.68;51.01;99422.63;5094712;28;20515;-94
2022/01/22 00:25:31;;;;;;;0.50;0.50;;;;;;;0.68;51.46;99422.63;5094827;28;20189;-90
2022/01/22 00:27:56;;;;;;;6.33;1.23;;;;;;;0.83;50.79;99422.50;5094745;28;20421;-90
2022/01/22 00:30:24;;;;;;;0.53;0.50;;;;;;;0.86;51.05;99430.22;5094509;28;20209;-89
2022/01/22 00:32:51;;;;;;;1.10;1.00;;;;;;;0.63;50.82;99430.38;5095534;28;20185;-90
2022/01/22 00:35:18;;;;;;;3.30;1.23;;;;;;;0.75;49.56;99419.97;5095256;28;20423;-89
2022/01/22 00:37:47;;;;;;;0.80;0.53;;;;;;;0.45;50.45;99421.06;5095508;28;20928;-93
2022/01/22 00:40:14;;;;;;;2.73;1.40;;;;;;;0.59;50.17;99419.25;5094261;28;20447;-89
2022/01/22 00:42:41;;;;;;;0.50;0.50;;;;;;;0.65;49.43;99422.66;5095234;28;20857;-89
2022/01/22 00:45:07;;;;;;;0.80;0.77;;;;;;;0.79;49.10;99415.63;5095562;28;20491;-91
2022/01/22 00:47:35;;;;;;;1.90;1.13;;;;;;;0.71;49.18;99414.88;5096205;28;20443;-90
2022/01/22 00:50:00;;;;;;;1.13;0.93;;;;;;;0.53;49.39;99419.28;5094572;28;20214;-94
2022/01/22 00:52:26;;;;;;;0.50;0.50;;;;;;;0.46;49.41;99422.81;5094714;28;20787;-90
2022/01/22 00:54:52;;;;;;;4.03;0.63;;;;;;;0.47;49.84;99424.50;5094511;28;20210;-90
2022/01/22 00:57:17;;;;;;;0.60;0.50;;;;;;;0.48;49.10;99413.31;5095563;28;20176;-89
2022/01/22 00:59:43;;;;;;;1.60;0.53;;;;;;;0.42;49.35;99420.28;5094380;28;20183;-92
2022/01/22 01:02:08;;;;;;;0.93;0.93;;;;;;;0.52;49.09;99425.31;5095241;28;20178;-92
2022/01/22 01:04:35;;;;;;;1.57;0.60;;;;;;;0.38;48.97;99414.28;5097113;28;20227;-96
2022/01/22 01:07:02;;;;;;;1.30;0.83;;;;;;;0.42;49.34;99412.53;5094002;28;20260;-92
2022/01/22 01:09:27;;;;;;;0.50;0.50;;;;;;;0.45;49.30;99407.31;5094276;28;20767;-94
2022/01/22 01:11:58;;;;;;;0.30;0.30;;;;;;;0.47;48.64;99403.88;5094699;28;20426;-90
2022/01/22 01:14:30;;;;;;;0.73;0.63;;;;;;;0.68;48.86;99397.69;5094470;28;20611;-92
2022/01/22 01:33:11;;;;;;;0.90;0.70;;;;;;;0.63;48.43;99362.50;5094863;28;20466;-91
2022/01/22 01:35:38;;;;;;;4.57;0.50;;;;;;;0.78;48.19;99367.50;5094477;28;20868;-91
2022/01/22 01:38:05;;;;;;;0.50;0.50;;;;;;;0.78;48.55;99363.19;5093253;28;20983;-92
2022/01/22 01:40:32;;;;;;;0.67;0.57;;;;;;;0.55;48.24;99365.97;5093979;28;20477;-91
2022/01/22 01:45:23;;;;;;;2.37;0.40;;;;;;;0.48;48.61;99364.34;5094707;28;20419;-92
2022/01/22 01:47:57;;;;;;;0.40;0.40;;;;;;;0.54;48.44;99369.44;5093145;28;20177;-93
2022/01/22 01:50:23;;;;;;;0.30;0.30;;;;;;;0.27;48.55;99368.81;5093798;28;20177;-94
2022/01/22 01:55:50;;;;;;;0.37;0.37;;;;;;;0.07;49.00;99366.38;5093769;28;20168;-89
2022/01/22 01:58:17;;;;;;;0.30;0.30;;;;;;;-0.04;49.32;99375.91;5093175;28;20472;-91
2022/01/22 02:00:44;;;;;;;2.83;1.20;;;;;;;0.24;49.12;99373.97;5093585;28;20492;-92
2022/01/22 02:03:12;;;;;;;1.20;0.87;;;;;;;0.21;48.27;99369.69;5092745;28;20482;-91
2022/01/22 02:05:38;;;;;;;2.43;0.57;;;;;;;0.38;48.10;99374.72;5092767;28;20438;-91
2022/01/22 02:08:04;;;;;;;0.50;0.43;;;;;;;0.19;47.87;99381.75;5093565;28;20750;-91
2022/01/22 02:10:33;;;;;;;0.87;0.77;;;;;;;0.13;48.45;99376.63;5092495;28;20426;-91
2022/01/22 02:23:48;;;;;;;1.33;0.77;;;;;;;0.57;47.18;99363.41;5094054;28;20480;-92
2022/01/22 02:26:16;;;;;;;2.50;0.67;;;;;;;0.39;48.61;99359.25;5093244;28;20422;-92
2022/01/22 02:28:47;;;;;;;1.10;1.00;;;;;;;0.49;48.46;99355.75;5092685;28;20411;-92
2022/01/22 02:31:21;;;;;;;1.20;0.50;;;;;;;0.35;48.57;99351.56;5093854;28;20463;-91
2022/01/22 02:41:16;;;;;;;1.13;0.80;;;;;;;0.20;49.41;99339.66;5093282;28;20470;-92
2022/01/22 02:43:42;;;;;;;0.80;0.77;;;;;;;0.35;48.98;99357.56;5093271;28;20705;-91
2022/01/22 02:46:08;;;;;;;0.50;0.43;;;;;;;0.40;48.48;99345.50;5096385;28;20426;-91
2022/01/22 02:48:33;;;;;;;2.10;1.00;;;;;;;0.52;48.81;99352.28;5097791;28;20176;-91
2022/01/22 02:50:58;;;;;;;9.40;0.83;;;;;;;0.65;48.17;99353.00;5096317;28;20430;-92
2022/01/22 02:53:24;;;;;;;2.47;1.47;;;;;;;0.74;47.56;99350.31;5097749;28;20200;-92
2022/01/22 02:55:50;;;;;;;0.53;0.40;;;;;;;0.65;47.86;99345.28;5097044;28;20644;-92
2022/01/22 02:58:16;;;;;;;3.63;1.27;;;;;;;0.70;47.85;99340.94;5096259;28;20263;-92
2022/01/22 03:00:42;;;;;;;1.43;0.87;;;;;;;0.70;47.80;99349.53;5096280;28;20463;-92
2022/01/22 03:03:07;;;;;;;7.37;2.30;;;;;;;0.78;47.84;99350.31;5096084;28;20790;-92
2022/01/22 03:05:34;;;;;;;3.53;1.70;;;;;;;0.80;48.13;99355.44;5096222;28;20626;-92
2022/01/22 03:08:05;;;;;;;1.50;0.97;;;;;;;0.88;47.72;99351.91;5097052;28;20248;-91
2022/01/22 03:10:30;;;;;;;2.20;1.53;;;;;;;0.91;47.61;99351.03;5096035;28;20485;-93
2022/01/22 03:18:05;;;;;;;0.60;0.60;;;;;;;0.73;47.51;99351.22;5097141;28;20563;-92
2022/01/22 03:29:02;;;;;;;0.27;0.27;;;;;;;-0.21;48.22;99333.97;5097527;28;20464;-92
2022/01/22 03:31:27;;;;;;;0.40;0.40;;;;;;;-0.35;49.06;99330.59;5095767;28;20410;-92
2022/01/22 03:33:53;;;;;;;3.93;0.80;;;;;;;-0.49;49.10;99327.22;5096576;28;20424;-92
2022/01/22 03:36:19;;;;;;;1.10;0.90;;;;;;;-0.52;49.16;99322.97;5095654;28;20177;-93
2022/01/22 03:38:47;;;;;;;0.40;0.40;;;;;;;-0.64;49.86;99321.31;5095848;28;20433;-93
2022/01/22 03:41:13;;;;;;;0.40;0.40;;;;;;;-0.37;49.20;99307.44;5095486;28;20482;-92
2022/01/22 03:43:38;;;;;;;0.50;0.40;;;;;;;-0.64;49.27;99313.59;5095646;28;20838;-93
2022/01/22 03:46:04;;;;;;;0.83;0.60;;;;;;;-0.65;49.74;99317.03;5095771;28;20317;-93
2022/01/22 03:48:30;;;;;;;0.30;0.30;;;;;;;-0.67;49.89;99316.19;5095409;28;20177;-95
2022/01/22 03:50:55;;;;;;;0.30;0.30;;;;;;;-0.49;49.75;99296.34;5095371;28;20180;-92
2022/01/22 03:53:21;;;;;;;0.40;0.40;;;;;;;-0.47;49.36;99304.94;5096158;28;20242;-93
2022/01/22 03:56:03;;;;;;;2.67;1.17;;;;;;;-0.51;49.16;99303.22;5093947;28;20610;-92
2022/01/22 03:58:36;;;;;;;0.40;0.40;;;;;;;-0.73;49.00;99298.19;5095320;28;20172;-92
2022/01/22 04:04:02;;;;;;;4.70;0.83;;;;;;;-0.68;49.45;99306.75;5096588;28;20464;-91
2022/01/22 04:08:55;;;;;;;0.30;0.30;;;;;;;-0.47;48.62;99289.50;5096300;28;20591;-93
2022/01/22 04:11:21;;;;;;;0.90;0.90;;;;;;;-0.75;48.78;99299.94;5094846;28;20189;-90
2022/01/22 04:13:50;;;;;;;0.30;0.30;;;;;;;-0.75;49.59;99299.94;5094996;28;20410;-91
2022/01/22 04:16:15;;;;;;;0.67;0.50;;;;;;;-0.63;49.12;99302.41;5094771;28;20176;-90
2022/01/22 04:26:59;;;;;;;1.50;0.93;;;;;;;-0.49;48.15;99304.94;5095812;28;20429;-90
2022/01/22 04:29:26;;;;;;;0.60;0.60;;;;;;;-0.39;47.55;99298.03;5095793;28;20387;-90
2022/01/22 04:31:53;;;;;;;0.30;0.30;;;;;;;-0.58;47.90;99301.56;5094117;28;20483;-90
2022/01/22 04:34:18;;;;;;;0.43;0.43;;;;;;;-0.38;48.17;99290.28;5095533;28;20844;-89
2022/01/22 04:36:44;;;;;;;0.30;0.30;;;;;;;-0.33;48.32;99296.25;5094122;28;20423;-92
2022/01/22 04:39:10;;;;;;;0.43;0.43;;;;;;;-0.40;47.93;99292.00;5095045;28;20176;-91
2022/01/22 04:41:36;;;;;;;1.60;0.70;;;;;;;-0.54;48.32;99300.66;5094917;28;20229;-90
2022/01/22 04:44:04;;;;;;;0.70;0.50;;;;;;;-0.58;49.21;99293.84;5094262;28;20534;-94
2022/01/22 04:46:51;;;;;;;0.50;0.50;;;;;;;-0.58;48.64;99296.41;5095273;28;20480;-90
2022/01/22 04:55:21;;;;;;;0.50;0.50;;;;;;;-0.61;48.70;99292.13;5095387;28;20505;-89
2022/01/22 04:57:21;;;;;;;0.40;0.40;;;;;;;-0.63;48.93;99296.44;5087315;28;20552;-91
2022/01/22 04:59:47;;;;;;;3.03;0.90;;;;;;;-0.43;48.99;99302.31;5094920;28;20965;-89
2022/01/22 05:02:13;;;;;;;0.60;0.60;;;;;;;-0.47;48.75;99300.63;5093815;28;20176;-91
2022/01/22 05:04:38;;;;;;;12.17;1.93;;;;;;;-0.62;48.46;99301.56;5094429;28;20201;-88
2022/01/22 05:07:04;;;;;;;0.30;0.30;;;;;;;-0.51;48.91;99303.22;5093973;28;20188;-89
2022/01/22 05:09:30;;;;;;;0.50;0.50;;;;;;;-0.48;48.27;99298.06;5094480;28;20229;-90
2022/01/22 05:11:56;;;;;;;0.47;0.47;;;;;;;-0.35;48.26;99307.44;5094333;28;20180;-91
2022/01/22 05:14:23;;;;;;;0.63;0.50;;;;;;;-0.37;48.37;99311.72;5094578;28;20418;-90
2022/01/22 05:16:50;;;;;;;2.27;1.10;;;;;;;-0.22;47.65;99311.63;5094741;28;20184;-89
2022/01/22 05:19:25;;;;;;;7.00;1.23;;;;;;;-0.40;47.79;99310.03;5094186;28;20411;-89
2022/01/22 05:21:53;;;;;;;1.60;0.70;;;;;;;-0.20;47.62;99320.19;5094282;28;20398;-92
2022/01/22 05:24:24;;;;;;;0.30;0.30;;;;;;;-0.35;47.10;99322.88;5094092;28;20462;-89
2022/01/22 05:37:07;;;;;;;1.47;0.93;;;;;;;0.05;46.98;99320.88;5094245;28;20176;-93
2022/01/22 05:39:34;;;;;;;0.40;0.40;;;;;;;-0.19;47.32;99322.78;5094113;28;20402;-90
2022/01/22 05:42:03;;;;;;;0.77;0.77;;;;;;;-0.25;47.31;99322.81;5093276;28;20841;-92
2022/01/22 05:44:31;;;;;;;27.47;1.10;;;;;;;-0.15;46.89;99321.00;5094144;28;20465;-91
2022/01/22 05:47:04;;;;;;;0.97;0.60;;;;;;;-0.05;47.27;99322.66;5093620;28;20796;-89
2022/01/22 05:49:32;;;;;;;1.63;0.50;;;;;;;-0.01;47.06;99314.91;5093771;28;20411;-89
2022/01/22 05:51:59;;;;;;;0.37;0.37;;;;;;;-0.05;46.90;99325.22;5092943;28;20448;-94
2022/01/22 05:59:39;;;;;;;2.80;1.50;;;;;;;0.04;46.66;99322.59;5094683;28;20426;-91
2022/01/22 06:02:13;;;;;;;1.00;0.83;;;;;;;0.20;46.67;99319.03;5093498;28;20407;-90
2022/01/22 06:04:39;;;;;;;0.47;0.40;;;;;;;0.39;46.15;99315.41;5093293;28;21038;-91
2022/01/22 06:07:06;;;;;;;4.93;0.67;;;;;;;0.44;45.96;99313.66;5092488;28;20415;-91
2022/01/22 06:09:33;;;;;;;2.93;0.70;;;;;;;0.49;45.84;99316.19;5093641;28;20514;-90
2022/01/22 06:14:34;;;;;;;0.50;0.50;;;;;;;0.45;45.98;99323.09;5093665;28;20475;-91
2022/01/22 06:17:00;;;;;;;1.10;0.97;;;;;;;0.47;45.44;99318.78;5092614;28;20422;-90
2022/01/22 06:19:26;;;;;;;0.30;0.30;;;;;;;0.53;45.56;99313.56;5092538;28;20421;-89
2022/01/22 06:21:52;;;;;;;0.73;0.57;;;;;;;0.63;45.89;99313.50;5092214;28;20177;-89
2022/01/22 06:24:18;;;;;;;3.00;1.67;;;;;;;0.63;46.05;99304.00;5093406;28;20197;-89
2022/01/22 06:26:43;;;;;;;0.33;0.33;;;;;;;0.46;45.81;99309.34;5093161;28;20181;-89
2022/01/22 06:29:09;;;;;;;0.40;0.40;;;;;;;0.60;45.69;99302.31;5093373;28;20423;-88
2022/01/22 06:31:35;;;;;;;0.60;0.60;;;;;;;0.86;45.28;99296.91;5093235;28;20264;-90
2022/01/22 06:34:01;;;;;;;0.40;0.40;;;;;;;1.35;44.44;99299.72;5092159;28;20439;-89
2022/01/22 06:36:27;;;;;;;0.43;0.43;;;;;;;1.76;43.57;99288.81;5093334;28;20315;-87
2022/01/22 06:38:58;;;;;;;4.90;0.70;;;;;;;2.31;42.74;99287.03;5093391;28;20189;-89
2022/01/22 06:44:08;;;;;;;2.23;1.43;;;;;;;2.48;41.69;99273.81;5092954;28;20513;-87
2022/01/22 06:46:33;;;;;;;1.60;0.70;;;;;;;2.38;42.32;99272.28;5092957;28;20413;-87
2022/01/22 06:48:59;;;;;;;0.50;0.40;;;;;;;2.43;42.55;99271.34;5092986;28;20244;-87
2022/01/22 06:51:26;;;;;;;0.30;0.30;;;;;;;2.28;41.93;99263.00;5092015;28;20708;-86
2022/01/22 06:53:53;;;;;;;1.80;0.97;;;;;;;2.22;42.43;99260.50;5091989;28;20201;-86
2022/01/22 06:56:21;;;;;;;0.40;0.40;;;;;;;2.22;42.33;99263.94;5093245;28;20445;-86
2022/01/22 06:58:47;;;;;;;0.30;0.30;;;;;;;2.19;42.52;99251.06;5091924;28;20919;-87
2022/01/22 07:01:13;;;;;;;2.50;0.50;;;;;;;2.35;42.60;99265.44;5091869;28;20933;-88
2022/01/22 07:03:39;;;;;;;1.33;0.90;;;;;;;2.22;42.82;99260.50;5092741;28;20451;-88
2022/01/22 07:06:04;;;;;;;2.43;0.53;;;;;;;2.35;42.54;99251.66;5092157;28;20608;-85
2022/01/22 07:08:29;;;;;;;0.87;0.47;;;;;;;2.66;42.77;99246.75;5092809;28;20180;-86
2022/01/22 07:10:55;;;;;;;0.73;0.60;;;;;;;2.88;41.52;99243.69;5093083;28;20636;-84
2022/01/22 07:13:20;;;;;;;0.70;0.50;;;;;;;3.20;41.19;99229.25;5093048;28;20184;-88
2022/01/22 07:15:46;;;;;;;1.07;0.87;;;;;;;3.00;41.41;99230.53;5092736;28;20176;-86
2022/01/22 07:18:13;;;;;;;1.37;0.73;;;;;;;3.08;40.82;99226.03;5093305;28;20176;-85
2022/01/22 07:20:41;;;;;;;1.10;0.53;;;;;;;2.81;40.74;99236.09;5091740;28;20183;-85
2022/01/22 07:25:39;;;;;;;1.30;0.60;;;;;;;2.75;42.07;99231.88;5092704;28;20163;-84
2022/01/22 07:28:05;;;;;;;0.97;0.50;;;;;;;2.66;41.39;99228.63;5092892;28;20417;-84
2022/01/22 07:30:30;;;;;;;2.67;0.50;;;;;;;2.58;41.68;99231.38;5094630;28;20546;-84
2022/01/22 07:32:56;;;;;;;1.17;0.67;;;;;;;2.59;42.32;99230.50;5096206;28;20183;-83
2022/01/22 07:35:21;;;;;;;1.63;0.70;;;;;;;2.61;42.56;99228.75;5095216;28;20187;-87
2022/01/22 07:37:47;;;;;;;0.47;0.30;;;;;;;2.76;42.69;99220.66;5096415;28;20183;-84
2022/01/22 07:40:13;;;;;;;0.30;0.30;;;;;;;3.09;42.30;99216.53;5096164;28;20195;-85
2022/01/22 07:42:40;;;;;;;2.30;1.40;;;;;;;2.77;42.00;99214.63;5096083;28;20640;-88
2022/01/22 07:45:07;;;;;;;0.77;0.57;;;;;;;2.52;42.57;99213.38;5095261;28;20202;-86
2022/01/22 07:47:37;;;;;;;0.33;0.33;;;;;;;2.73;42.32;99206.91;5095911;28;20883;-86
2022/01/22 07:50:04;;;;;;;0.50;0.40;;;;;;;2.19;42.67;99219.19;5096131;28;20183;-88
2022/01/22 07:52:29;;;;;;;1.30;0.97;;;;;;;2.14;43.07;99221.00;5096071;28;20471;-85
2022/01/22 07:54:54;;;;;;;0.70;0.60;;;;;;;2.21;43.35;99217.41;5095785;28;20254;-85
2022/01/22 07:57:20;;;;;;;0.67;0.63;;;;;;;2.24;42.82;99212.19;5096084;28;20560;-88
2022/01/22 07:59:45;;;;;;;2.27;0.90;;;;;;;2.42;43.28;99211.84;5094844;28;20210;-85
2022/01/22 08:02:13;;;;;;;0.30;0.30;;;;;;;2.32;43.13;99207.72;5095924;28;20563;-86
2022/01/22 08:04:39;;;;;;;0.50;0.50;;;;;;;2.51;43.05;99211.69;5094821;28;20269;-89
2022/01/22 08:07:05;;;;;;;1.40;1.13;;;;;;;2.58;42.13;99227.94;5094595;28;20184;-86
2022/01/22 08:09:30;;;;;;;0.33;0.30;;;;;;;2.26;42.51;99219.03;5094565;28;20184;-89
2022/01/22 08:11:56;;;;;;;1.00;0.90;;;;;;;2.51;42.55;99219.44;5094495;28;20187;-86
2022/01/22 08:14:21;;;;;;;0.53;0.30;;;;;;;2.45;42.08;99216.97;5094714;28;20232;-84
2022/01/22 08:16:49;;;;;;;6.23;0.83;;;;;;;2.53;42.32;99212.50;5094394;28;20190;-84
2022/01/22 08:19:16;;;;;;;1.43;0.40;;;;;;;2.59;42.45;99221.88;5094371;28;20184;-86
2022/01/22 08:21:43;;;;;;;1.13;0.87;;;;;;;2.79;41.56;99212.84;5095588;28;20266;-83
2022/01/22 08:24:09;;;;;;;1.73;0.80;;;;;;;3.12;42.16;99211.28;5094191;28;20250;-83
2022/01/22 08:26:39;;;;;;;1.60;0.83;;;;;;;2.89;41.82;99209.19;5094197;28;20172;-84
2022/01/22 08:29:04;;;;;;;0.97;0.40;;;;;;;2.71;41.65;99203.53;5095408;28;20229;-83
2022/01/22 08:36:43;;;;;;;1.07;0.50;;;;;;;2.81;40.68;99195.53;5095286;28;20175;-83
2022/01/22 08:39:10;;;;;;;0.83;0.43;;;;;;;2.92;40.67;99192.72;5094919;28;20593;-83
2022/01/22 08:41:36;;;;;;;0.67;0.57;;;;;;;3.09;40.97;99193.25;5093065;28;20191;-84
2022/01/22 08:44:03;;;;;;;3.03;1.00;;;;;;;3.15;41.22;99192.22;5095308;28;20208;-83
2022/01/22 08:46:29;;;;;;;0.70;0.70;;;;;;;3.38;41.16;99188.25;5094729;28;20243;-87
2022/01/22 08:48:55;;;;;;;1.27;0.60;;;;;;;3.19;40.95;99189.56;5094743;28;20185;-84
2022/01/22 08:51:20;;;;;;;4.43;1.60;;;;;;;3.08;41.18;99191.53;5093742;28;20187;-84
2022/01/22 08:53:47;;;;;;;2.37;1.87;;;;;;;3.20;41.69;99182.66;5093655;28;20613;-89
2022/01/22 08:56:13;;;;;;;36.07;10.50;;;;;;;3.13;41.77;99174.16;5093915;28;20176;-88
2022/01/22 08:58:39;;;;;;;6.67;3.03;;;;;;;3.23;41.83;99182.56;5093590;28;20238;-88
2022/01/22 09:01:05;;;;;;;5.43;2.33;;;;;;;3.25;41.16;99186.81;5094612;28;20202;-85
2022/01/22 09:03:31;;;;;;;5.13;2.43;;;;;;;3.18;41.54;99172.31;5094740;28;20200;-86
2022/01/22 09:05:57;;;;;;;1.80;1.27;;;;;;;3.12;41.86;99180.19;5093478;28;20338;-85
2022/01/22 09:08:26;;;;;;;1.10;0.50;;;;;;;3.20;41.22;99172.28;5093420;28;20206;-86
2022/01/22 09:10:52;;;;;;;0.70;0.60;;;;;;;3.12;41.60;99164.66;5093384;28;20690;-85
2022/01/22 09:13:19;;;;;;;2.30;0.67;;;;;;;3.47;41.58;99161.28;5094593;28;20168;-85
2022/01/22 09:15:45;;;;;;;0.60;0.40;;;;;;;3.24;41.87;99153.19;5093318;28;20181;-88
2022/01/22 09:18:11;;;;;;;0.57;0.53;;;;;;;3.39;42.04;99143.31;5094789;28;20187;-85
2022/01/22 09:23:02;;;;;;;0.37;0.37;;;;;;;3.20;41.48;99147.22;5094473;28;20180;-85
2022/01/22 09:25:27;;;;;;;2.00;0.63;;;;;;;3.25;42.09;99144.53;5094324;28;20243;-87
2022/01/22 09:27:53;;;;;;;0.90;0.57;;;;;;;3.55;41.64;99133.44;5093056;28;20271;-86
2022/01/22 09:30:18;;;;;;;0.50;0.50;;;;;;;3.41;41.75;99132.91;5093347;28;20265;-86
2022/01/22 09:32:44;;;;;;;1.83;0.80;;;;;;;3.88;41.86;99119.63;5094202;28;20633;-86
2022/01/22 09:35:09;;;;;;;0.40;0.40;;;;;;;4.06;40.97;99121.72;5094442;28;20229;-85
2022/01/22 09:37:35;;;;;;;0.63;0.50;;;;;;;4.02;40.92;99107.16;5092901;28;20180;-83
2022/01/22 09:40:00;;;;;;;3.50;0.70;;;;;;;3.90;40.63;99109.22;5093108;28;20192;-83
2022/01/22 09:42:26;;;;;;;0.30;0.30;;;;;;;4.10;41.09;99118.19;5094330;28;20173;-88
2022/01/22 09:44:52;;;;;;;1.60;1.07;;;;;;;4.20;41.10;99109.25;5093673;28;20238;-84
2022/01/22 09:47:20;;;;;;;1.23;0.50;;;;;;;4.14;41.25;99098.22;5093048;28;20555;-86
2022/01/22 09:49:45;;;;;;;2.77;1.00;;;;;;;3.97;40.78;99103.84;5092680;28;20190;-87
2022/01/22 09:52:12;;;;;;;3.80;1.30;;;;;;;4.25;41.04;99091.81;5092675;28;20184;-84
2022/01/22 09:54:38;;;;;;;0.83;0.77;;;;;;;4.42;40.93;99085.28;5093569;28;20180;-85
2022/01/22 09:57:04;;;;;;;1.63;1.13;;;;;;;4.22;40.55;99073.72;5092825;28;20252;-86
2022/01/22 09:59:31;;;;;;;3.70;1.63;;;;;;;4.68;41.46;99062.03;5093746;28;20248;-85
2022/01/22 10:02:18;;;;;;;1.57;0.83;;;;;;;4.49;39.77;99047.88;5093521;28;20251;-87
2022/01/22 10:04:48;;;;;;;0.60;0.40;;;;;;;4.58;40.56;99050.22;5093368;28;20252;-85
2022/01/22 10:07:21;;;;;;;1.13;0.63;;;;;;;4.69;41.17;99050.75;5093454;28;20644;-85
2022/01/22 10:10:00;;;;;;;1.30;0.80;;;;;;;4.71;39.66;99051.56;5092453;28;20173;-85
2022/01/22 10:12:27;;;;;;;2.03;0.90;;;;;;;4.85;39.45;99047.63;5094123;28;20238;-86
2022/01/22 10:15:05;;;;;;;0.70;0.70;;;;;;;4.78;39.20;99045.25;5092684;28;20176;-87
2022/01/22 10:17:55;;;;;;;1.60;0.50;;;;;;;4.68;39.28;99046.44;5093272;28;20180;-84
2022/01/22 10:20:21;;;;;;;0.97;0.67;;;;;;;4.72;39.47;99046.28;5093575;28;20161;-87
2022/01/22 10:22:54;;;;;;;1.00;0.67;;;;;;;4.48;39.74;99047.03;5092234;28;20547;-85
2022/01/22 10:25:33;;;;;;;2.10;0.50;;;;;;;4.47;39.67;99049.69;5093472;28;20387;-89
2022/01/22 10:28:04;;;;;;;0.50;0.50;;;;;;;4.90;39.74;99035.34;5093245;28;20671;-88
2022/01/22 10:30:36;;;;;;;0.50;0.50;;;;;;;5.01;39.36;99026.34;5093183;28;20625;-90
2022/01/22 10:33:22;;;;;;;1.07;0.70;;;;;;;4.81;39.75;99032.19;5092202;28;20255;-85
2022/01/22 10:35:47;;;;;;;0.30;0.30;;;;;;;4.80;39.77;99033.06;5093447;28;20153;-86
2022/01/22 10:38:16;;;;;;;3.30;1.20;;;;;;;4.96;39.31;99018.72;5092074;28;20195;-84
2022/01/22 10:40:42;;;;;;;4.30;1.03;;;;;;;4.89;38.76;99027.59;5091959;28;20189;-85
2022/01/22 10:43:33;;;;;;;1.30;0.67;;;;;;;4.84;38.19;99029.50;5092114;28;20296;-85
2022/01/22 10:46:44;;;;;;;2.30;0.70;;;;;;;5.09;37.48;99024.38;5093621;28;20173;-84
2022/01/22 10:49:21;;;;;;;1.03;0.40;;;;;;;4.98;36.91;99016.91;5086645;28;20184;-86
2022/01/22 10:52:01;;;;;;;2.47;0.97;;;;;;;5.09;36.83;99007.03;5093485;28;20214;-84
2022/01/22 10:54:28;;;;;;;1.07;0.50;;;;;;;4.74;36.72;99002.13;5093674;28;20579;-84
2022/01/22 10:57:14;;;;;;;0.90;0.43;;;;;;;4.87;38.52;99006.03;5092949;28;20172;-84
2022/01/22 10:59:46;;;;;;;0.70;0.50;;;;;;;4.94;36.71;98994.56;5093216;28;20165;-85
2022/01/22 11:02:12;;;;;;;0.43;0.40;;;;;;;4.88;38.35;98989.53;5093051;28;20237;-91
2022/01/22 11:04:41;;;;;;;0.53;0.47;;;;;;;5.10;38.24;98990.56;5092728;28;20265;-86
2022/01/22 11:07:09;;;;;;;2.83;0.60;;;;;;;5.12;36.82;98988.75;5096740;28;20183;-88
2022/01/22 11:09:35;;;;;;;0.80;0.50;;;;;;;5.39;36.56;98976.59;5097285;28;20179;-85
2022/01/22 11:12:04;;;;;;;2.53;0.50;;;;;;;5.37;36.04;98983.59;5096777;28;20178;-86
2022/01/22 11:14:31;;;;;;;0.50;0.50;;;;;;;5.22;34.90;98978.91;5096593;28;20169;-86
2022/01/22 11:16:58;;;;;;;0.97;0.73;;;;;;;5.19;36.82;98982.44;5095883;28;20249;-88
2022/01/22 11:19:33;;;;;;;1.10;0.60;;;;;;;5.47;36.60;98980.63;5095552;28;20172;-84
2022/01/22 11:22:10;;;;;;;5.00;0.63;;;;;;;5.13;36.38;98985.28;5096523;28;20167;-84
2022/01/22 11:24:38;;;;;;;0.20;0.20;;;;;;;4.93;36.41;98974.66;5096692;28;20180;-84
2022/01/22 11:27:06;;;;;;;0.57;0.50;;;;;;;4.87;36.04;98978.31;5096401;28;20276;-85
2022/01/22 11:29:37;;;;;;;2.20;0.83;;;;;;;5.40;36.46;98971.31;5096599;28;20210;-84
2022/01/22 11:32:08;;;;;;;3.13;0.87;;;;;;;5.60;36.09;98965.44;5096598;28;20154;-85
2022/01/22 11:34:36;;;;;;;1.87;0.70;;;;;;;5.55;34.43;98963.00;5096469;28;20155;-85
2022/01/22 11:37:05;;;;;;;0.20;0.20;;;;;;;5.28;35.77;98958.78;5095251;28;20172;-86
2022/01/22 11:39:31;;;;;;;1.03;0.77;;;;;;;5.40;36.00;98958.34;5095158;28;20238;-85
2022/01/22 11:41:58;;;;;;;2.63;1.13;;;;;;;5.28;35.62;98966.56;5096568;28;20190;-84
2022/01/22 11:44:36;;;;;;;0.50;0.40;;;;;;;5.19;34.85;98963.44;5096238;28;20200;-86
2022/01/22 11:47:17;;;;;;;1.17;0.40;;;;;;;5.28;35.28;98953.56;5095075;28;20165;-84
2022/01/22 11:50:13;;;;;;;1.00;0.43;;;;;;;5.35;34.90;98949.00;5096208;28;20184;-84
2022/01/22 11:52:41;;;;;;;4.43;1.03;;;;;;;5.10;35.92;98961.13;5083168;28;20181;-85
2022/01/22 11:55:12;;;;;;;2.73;0.43;;;;;;;5.26;36.23;98951.94;5094869;28;20177;-88
2022/01/22 11:57:39;;;;;;;0.73;0.40;;;;;;;5.15;36.55;98947.09;5094968;28;20204;-86
2022/01/22 12:00:23;;;;;;;3.10;0.90;;;;;;;4.63;38.84;98973.91;5095681;28;20233;-86
2022/01/22 12:03:03;;;;;;;1.03;0.73;;;;;;;4.46;40.71;98972.72;5095052;28;20165;-83
2022/01/22 12:05:32;;;;;;;0.97;0.70;;;;;;;4.04;40.64;98972.25;5094660;28;20200;-84
2022/01/22 12:08:01;;;;;;;0.60;0.50;;;;;;;4.16;40.58;98975.34;5095886;28;20180;-83
2022/01/22 12:10:43;;;;;;;0.93;0.70;;;;;;;4.19;40.17;98967.47;5094934;28;20520;-84
2022/01/22 12:16:48;;;;;;;3.50;1.17;;;;;;;4.62;38.85;98958.38;5071021;28;20192;-83
2022/01/22 12:19:46;;;;;;;1.03;0.80;;;;;;;4.73;38.16;98951.09;5095708;28;20594;-83
2022/01/22 12:22:30;;;;;;;10.43;1.87;;;;;;;4.70;38.33;98949.44;5095597;28;20609;-83
2022/01/22 12:24:59;;;;;;;0.20;0.20;;;;;;;4.44;37.83;98945.97;5094262;28;20203;-84
2022/01/22 12:27:48;;;;;;;1.87;0.90;;;;;;;4.77;39.27;98945.75;5095216;28;20310;-83
2022/01/22 12:30:31;;;;;;;2.20;0.87;;;;;;;4.46;37.85;98945.03;5095434;28;20232;-85
2022/01/22 12:32:57;;;;;;;4.00;0.90;;;;;;;4.28;38.58;98953.38;5095446;28;20164;-84
2022/01/22 12:35:47;;;;;;;0.53;0.47;;;;;;;4.44;37.13;98951.16;5095060;28;20253;-84
2022/01/22 12:38:50;;;;;;;2.97;0.60;;;;;;;4.55;37.63;98944.75;5095343;28;20251;-83
2022/01/22 12:44:35;;;;;;;0.93;0.83;;;;;;;4.40;36.27;98939.19;5094939;28;20181;-84
2022/01/22 12:47:05;;;;;;;0.60;0.33;;;;;;;4.73;36.46;98943.31;5095149;28;20160;-83
2022/01/22 12:49:33;;;;;;;0.80;0.47;;;;;;;5.11;37.27;98952.44;5094414;28;20187;-83
2022/01/22 12:52:01;;;;;;;0.60;0.40;;;;;;;5.39;36.18;98942.81;5094816;28;20682;-83
2022/01/22 12:54:32;;;;;;;6.67;1.80;;;;;;;5.37;36.22;98939.41;5094696;28;20523;-84
2022/01/22 12:57:12;;;;;;;3.60;0.87;;;;;;;5.64;36.08;98929.78;5094661;28;20168;-84
2022/01/22 12:59:52;;;;;;;4.53;1.87;;;;;;;5.34;35.84;98937.78;5094957;28;20256;-83
2022/01/22 13:02:18;;;;;;;0.77;0.70;;;;;;;5.54;36.61;98932.72;5093600;28;20172;-84
2022/01/22 13:05:00;;;;;;;0.70;0.40;;;;;;;5.32;34.60;98934.34;5093845;28;20287;-84
2022/01/22 13:07:27;;;;;;;2.30;1.00;;;;;;;5.41;34.56;98934.06;5094446;28;20172;-84
2022/01/22 13:09:56;;;;;;;1.53;0.57;;;;;;;5.47;34.85;98935.59;5094688;28;20509;-83
2022/01/22 13:12:27;;;;;;;1.83;0.47;;;;;;;5.63;35.28;98939.34;5093933;28;20237;-84
2022/01/22 13:14:56;;;;;;;0.57;0.43;;;;;;;5.53;34.86;98943.16;5094619;28;20150;-84
2022/01/22 13:17:31;;;;;;;2.13;0.73;;;;;;;5.30;33.55;98949.16;5094543;28;20569;-84
2022/01/22 13:19:57;;;;;;;0.93;0.70;;;;;;;5.03;34.75;98933.69;5093305;28;20163;-84
2022/01/22 13:22:38;;;;;;;3.40;0.97;;;;;;;4.83;34.62;98934.31;5094152;28;20169;-83
2022/01/22 13:25:04;;;;;;;1.23;0.60;;;;;;;4.89;35.13;98941.91;5093065;28;20212;-86
2022/01/22 13:27:31;;;;;;;2.00;0.73;;;;;;;4.70;35.43;98938.22;5093627;28;20293;-86
2022/01/22 13:29:57;;;;;;;1.60;0.93;;;;;;;4.57;35.59;98935.16;5093042;28;20184;-84
2022/01/22 13:35:00;;;;;;;0.80;0.60;;;;;;;4.57;35.17;98947.28;5093984;28;20226;-84
2022/01/22 13:37:55;;;;;;;1.93;1.00;;;;;;;4.74;35.46;98945.84;5094189;28;20160;-88
2022/01/22 13:40:32;;;;;;;1.07;0.53;;;;;;;4.95;35.83;98945.16;5093774;28;20204;-84
2022/01/22 13:48:29;;;;;;;2.10;0.93;;;;;;;4.72;35.92;98932.06;5094586;28;20570;-83
2022/01/22 13:50:55;;;;;;;1.17;0.87;;;;;;;4.54;36.58;98924.88;5093638;28;20504;-84